Norwegian Epic — C6XP7 — position and weather

sailwx.info

Track history (hours):
 
Tides and Currents Weather Stations Pressure Air Temp Water Temp Dewpoint Dewpoint Depression Visibility Wind Speed Wind Dir Waves Ship Positions

Norwegian Epic

Last reported at 2019-Aug-22 09:28 UTC. Time now 2019-Aug-22 09:38 UTC.
Position N 43°33' E 010°18'.

Length 329 m; draft 9.2 m.

Type: Passenger vessel. MMSI: 311018500.

Date/timePositionNaut miles runAvg speedWind from/ knotsBaromVisibWave heightAir tempDewpointWater temp
2019-Aug-22 09:28N 43°33' E 010°18'0 0.0
2019-Aug-22 08:59N 43°33' E 010°18'0 0.0
2019-Aug-22 08:29N 43°33' E 010°18'0 0.0
2019-Aug-22 07:59N 43°33' E 010°18'0 0.0
2019-Aug-22 07:30N 43°33' E 010°18'0 0.0
2019-Aug-22 07:00N 43°33' E 010°18'0 0.0
2019-Aug-22 06:30N 43°33' E 010°18'0 0.0
2019-Aug-22 06:01N 43°33' E 010°18'0 0.0
2019-Aug-22 05:28N 43°33' E 010°18'0 0.0
2019-Aug-22 04:58N 43°33' E 010°18'0 0.7
2019-Aug-22 04:31N 43°33' E 010°17'510.3
2019-Aug-22 04:00N 43°29' E 010°13'815.8
2019-Aug-22 03:31N 43°21' E 010°10'815.5
2019-Aug-22 03:01N 43°14' E 010°08'815.2
2019-Aug-22 02:30N 43°06' E 010°05'714.8
2019-Aug-22 02:00N 42°59' E 010°02'714.6
2019-Aug-22 01:30N 42°52' E 009°60'714.7
2019-Aug-22 01:01N 42°45' E 009°57'4222.9
2019-Aug-22 01:00N 42°48' E 009°54'1020.9 170 / 21018.010.8 25.0
2019-Aug-22 00:30N 42°38' E 009°55'714.5
2019-Aug-22 00:00N 42°31' E 009°53'714.2
2019-Aug-21 23:31N 42°24' E 009°54'714.4
2019-Aug-21 23:00N 42°17' E 009°58'814.8
2019-Aug-21 22:30N 42°13' E 010°07'815.6
2019-Aug-21 22:00N 42°11' E 010°17'815.8
2019-Aug-21 21:30N 42°08' E 010°27'815.5
2019-Aug-21 21:01N 42°05' E 010°36'9543.9
2019-Aug-21 21:00N 42°06' E 010°24'1734.3 200 / 51018.010.8 26.024.626.0
2019-Aug-21 20:30N 42°02' E 010°46'714.8
2019-Aug-21 20:00N 41°60' E 010°55'714.5
2019-Aug-21 19:31N 41°58' E 011°05'814.8
2019-Aug-21 19:00N 41°57' E 011°15'714.8
2019-Aug-21 18:30N 41°57' E 011°24'714.7
2019-Aug-21 18:00N 42°01' E 011°33'913.9
2019-Aug-21 17:22N 42°06' E 011°43'3 6.8
2019-Aug-21 16:59N 42°06' E 011°46'0 0.0
2019-Aug-21 16:14N 42°06' E 011°46'0 0.0
2019-Aug-21 14:15N 42°06' E 011°46'0 0.0
2019-Aug-21 13:55N 42°06' E 011°46'0 0.0
2019-Aug-21 13:28N 42°06' E 011°46'0 0.0
2019-Aug-21 12:58N 42°06' E 011°46'0 0.0
2019-Aug-21 12:23N 42°06' E 011°46'0 0.0
2019-Aug-21 11:47N 42°06' E 011°46'0 0.0
2019-Aug-21 11:29N 42°06' E 011°46'0 0.0
2019-Aug-21 10:59N 42°06' E 011°46'0 0.0
2019-Aug-21 10:30N 42°06' E 011°46'0 0.0
2019-Aug-21 10:00N 42°06' E 011°46'0 0.0
2019-Aug-21 09:30N 42°06' E 011°46'0 0.0
2019-Aug-21 08:58N 42°06' E 011°46'0 0.0
2019-Aug-21 08:16N 42°06' E 011°46'0 0.0
2019-Aug-21 07:58N 42°06' E 011°46'0 0.0
2019-Aug-21 07:29N 42°06' E 011°46'0 0.0
2019-Aug-21 06:59N 42°06' E 011°46'0 0.0
2019-Aug-21 06:29N 42°06' E 011°46'0 0.0
2019-Aug-21 06:00N 42°06' E 011°46'0 0.0
2019-Aug-21 05:24N 42°06' E 011°46'0 0.0
2019-Aug-21 04:16N 42°06' E 011°46'0 0.0
2019-Aug-21 03:58N 42°06' E 011°46'0 0.3
2019-Aug-21 03:31N 42°06' E 011°46'2 3.4
2019-Aug-21 03:00N 42°07' E 011°44'612.9
2019-Aug-21 02:30N 42°00' E 011°42'816.8
2019-Aug-21 02:00N 41°52' E 011°45'816.7
2019-Aug-21 01:30N 41°44' E 011°48'816.5
2019-Aug-21 01:00N 41°37' E 011°53'816.6
2019-Aug-21 00:30N 41°30' E 011°59'816.6
2019-Aug-21 00:00N 41°23' E 012°06'816.5
2019-Aug-20 23:30N 41°17' E 012°12'918.6
2019-Aug-20 23:00N 41°09' E 012°19'6368.8
2019-Aug-20 23:00N 41°06' E 012°12'1224.2 320 / 121016.010.8 25.0
2019-Aug-20 22:30N 41°01' E 012°26'1418.4
2019-Aug-20 21:46N 40°52' E 012°40'618.7
2019-Aug-20 21:26N 40°49' E 012°47'818.6
2019-Aug-20 21:00N 40°46' E 012°57'7430.1
2019-Aug-20 21:00N 40°48' E 012°48'1633.2 300 / 141017.010.8 26.024.626.0
2019-Aug-20 20:30N 40°43' E 013°08'918.4
2019-Aug-20 20:00N 40°41' E 013°20'918.5
2019-Aug-20 19:30N 40°40' E 013°32'918.5
2019-Aug-20 19:00N 40°38' E 013°44'918.4
2019-Aug-20 18:30N 40°38' E 013°56'917.7
2019-Aug-20 18:00N 40°41' E 014°07'816.3
2019-Aug-20 17:30N 40°47' E 014°15'4 7.1
2019-Aug-20 17:00N 40°50' E 014°16'0 0.0
2019-Aug-20 16:30N 40°50' E 014°16'0 0.0
2019-Aug-20 16:00N 40°50' E 014°16'0 0.0
2019-Aug-20 15:28N 40°50' E 014°16'0 0.0
2019-Aug-20 14:58N 40°50' E 014°16'0 0.0
2019-Aug-20 14:28N 40°50' E 014°16'0 0.0
2019-Aug-20 13:59N 40°50' E 014°16'0 0.0
2019-Aug-20 13:29N 40°50' E 014°16'0 0.0
2019-Aug-20 12:56N 40°50' E 014°16'0 0.0
2019-Aug-20 12:30N 40°50' E 014°16'0 0.0
2019-Aug-20 12:00N 40°50' E 014°16'0 0.0
2019-Aug-20 11:30N 40°50' E 014°16'0 0.0
2019-Aug-20 10:58N 40°50' E 014°16'0 0.0
2019-Aug-20 10:28N 40°50' E 014°16'0 0.0
2019-Aug-20 09:58N 40°50' E 014°16'0 0.0
2019-Aug-20 09:29N 40°50' E 014°16'0 0.0
2019-Aug-20 08:59N 40°50' E 014°16'0 0.0
2019-Aug-20 08:29N 40°50' E 014°16'0 0.0
2019-Aug-20 08:00N 40°50' E 014°16'0 0.0
2019-Aug-20 07:30N 40°50' E 014°16'0 0.0
2019-Aug-20 07:00N 40°50' E 014°16'0 0.0
2019-Aug-20 06:28N 40°50' E 014°16'0 0.0
2019-Aug-20 05:58N 40°50' E 014°16'0 0.0
2019-Aug-20 05:28N 40°50' E 014°16'0 0.0
2019-Aug-20 04:59N 40°50' E 014°16'0 1.0
2019-Aug-20 04:30N 40°50' E 014°16'3 6.8
2019-Aug-20 04:00N 40°47' E 014°16'713.9
2019-Aug-20 03:30N 40°42' E 014°09'714.0
2019-Aug-20 03:00N 40°39' E 014°01'713.2
2019-Aug-20 02:30N 40°38' E 013°53'815.8
2019-Aug-20 02:00N 40°39' E 013°42'815.9
2019-Aug-20 01:30N 40°39' E 013°32'816.1
2019-Aug-20 01:00N 40°40' E 013°21'816.1
2019-Aug-20 00:30N 40°41' E 013°11'816.0
2019-Aug-20 00:00N 40°42' E 013°00'816.0
2019-Aug-19 23:30N 40°43' E 012°50'815.9
2019-Aug-19 23:00N 40°44' E 012°39'815.8
2019-Aug-19 22:30N 40°46' E 012°29'816.0
2019-Aug-19 22:00N 40°48' E 012°19'816.1
2019-Aug-19 21:30N 40°50' E 012°09'816.1
2019-Aug-19 21:00N 40°52' E 011°58'4265.8
2019-Aug-19 21:00N 40°48' E 012°00'1122.5 010 / 7 27.0 26.024.626.0
2019-Aug-19 20:30N 40°54' E 011°48'816.0
2019-Aug-19 20:00N 40°56' E 011°38'815.8
2019-Aug-19 19:30N 40°58' E 011°28'816.0
2019-Aug-19 19:00N 41°00' E 011°18'915.7
2019-Aug-19 18:27N 41°02' E 011°06'815.7
2019-Aug-19 17:58N 41°04' E 010°56'715.5
2019-Aug-19 17:30N 41°06' E 010°47'1515.2
2019-Aug-19 16:30N 41°10' E 010°28'815.4
2019-Aug-19 16:00N 41°12' E 010°18'815.9
2019-Aug-19 15:30N 41°14' E 010°08'816.1
2019-Aug-19 15:00N 41°16' E 009°57'815.4
2019-Aug-19 14:29N 41°18' E 009°47'714.8
2019-Aug-19 14:00N 41°20' E 009°38'714.8
2019-Aug-19 13:30N 41°21' E 009°28'713.2
2019-Aug-19 13:00N 41°20' E 009°20'713.5
2019-Aug-19 12:30N 41°17' E 009°12'714.0
2019-Aug-19 12:00N 41°17' E 009°02'713.9
2019-Aug-19 11:31N 41°17' E 008°53'714.8
2019-Aug-19 11:00N 41°17' E 008°43'815.2
2019-Aug-19 10:31N 41°17' E 008°33'815.8
2019-Aug-19 10:00N 41°17' E 008°23'9613.2
2019-Aug-19 10:00N 41°12' E 008°12'510.2 090 / 131016.010.8 25.023.524.0
2019-Aug-19 09:30N 41°17' E 008°12'816.2
2019-Aug-19 09:00N 41°17' E 008°01'917.8
2019-Aug-19 08:31N 41°17' E 007°49'917.9
2019-Aug-19 08:00N 41°17' E 007°37'918.1
2019-Aug-19 07:31N 41°17' E 007°25'1016.6
2019-Aug-19 06:55N 41°17' E 007°12'716.5
2019-Aug-19 06:30N 41°17' E 007°03'816.5
2019-Aug-19 06:00N 41°17' E 006°52'916.8
2019-Aug-19 05:28N 41°17' E 006°40'817.1
2019-Aug-19 04:59N 41°17' E 006°29'817.4
2019-Aug-19 04:30N 41°17' E 006°18'1217.0
2019-Aug-19 03:48N 41°17' E 006°02'517.0
2019-Aug-19 03:30N 41°17' E 005°55'2816.9
2019-Aug-19 01:53N 41°16' E 005°19'616.9
2019-Aug-19 01:30N 41°16' E 005°10'817.1
2019-Aug-19 01:01N 41°16' E 004°59'816.9
2019-Aug-19 00:31N 41°16' E 004°48'816.8
2019-Aug-19 00:01N 41°16' E 004°37'6345.1
2019-Aug-19 00:00N 41°12' E 004°42'1326.9 110 / 111014.010.8 25.0
2019-Aug-18 23:31N 41°16' E 004°26'816.6
2019-Aug-18 23:01N 41°16' E 004°15'816.7
2019-Aug-18 22:30N 41°16' E 004°03'816.2
2019-Aug-18 22:01N 41°16' E 003°53'9536.0
2019-Aug-18 22:00N 41°12' E 003°42'4 7.9 130 / 131013.010.8 26.024.625.0
2019-Aug-18 21:31N 41°16' E 003°42'816.8
2019-Aug-18 21:01N 41°16' E 003°30'816.4
2019-Aug-18 20:31N 41°16' E 003°20'815.1
2019-Aug-18 20:01N 41°16' E 003°10'714.0
2019-Aug-18 19:30N 41°15' E 003°00'815.0
2019-Aug-18 19:00N 41°15' E 002°50'715.0
2019-Aug-18 18:30N 41°15' E 002°40'815.2
2019-Aug-18 18:00N 41°15' E 002°30'816.0
2019-Aug-18 17:30N 41°16' E 002°20'714.0
2019-Aug-18 17:00N 41°18' E 002°11'4 7.6
2019-Aug-18 16:30N 41°21' E 002°10'1 1.2
2019-Aug-18 16:00N 41°22' E 002°11'0 0.0
2019-Aug-18 15:28N 41°22' E 002°11'0 0.0
2019-Aug-18 14:58N 41°22' E 002°11'0 0.0
2019-Aug-18 14:28N 41°22' E 002°11'0 0.0
2019-Aug-18 13:59N 41°22' E 002°11'0 0.0
2019-Aug-18 13:26N 41°22' E 002°11'0 0.0
2019-Aug-18 12:59N 41°22' E 002°11'0 0.0
2019-Aug-18 12:30N 41°22' E 002°11'0 0.0
2019-Aug-18 12:00N 41°22' E 002°11'0 0.0
2019-Aug-18 11:30N 41°22' E 002°11'0 0.0
2019-Aug-18 10:58N 41°22' E 002°11'0 0.0
2019-Aug-18 10:28N 41°22' E 002°11'0 0.0
2019-Aug-18 09:58N 41°22' E 002°11'0 0.0
2019-Aug-18 09:29N 41°22' E 002°11'0 0.0
2019-Aug-18 08:59N 41°22' E 002°11'0 0.0
2019-Aug-18 08:29N 41°22' E 002°11'0 0.0
2019-Aug-18 08:00N 41°22' E 002°11'0 0.0
2019-Aug-18 07:00N 41°22' E 002°11'0 0.0
2019-Aug-18 06:28N 41°22' E 002°11'0 0.0
2019-Aug-18 05:58N 41°22' E 002°11'0 0.0
2019-Aug-18 05:25N 41°22' E 002°11'0 0.0
2019-Aug-18 04:56N 41°22' E 002°11'0 0.0
2019-Aug-18 04:26N 41°22' E 002°11'0 0.0
2019-Aug-18 03:59N 41°22' E 002°11'0 0.0
2019-Aug-18 03:27N 41°22' E 002°11'0 0.0
2019-Aug-18 03:00N 41°22' E 002°11'1 1.6
2019-Aug-18 02:30N 41°21' E 002°10'3 6.1
2019-Aug-18 02:00N 41°18' E 002°11'714.9
2019-Aug-18 01:30N 41°11' E 002°11'917.0
2019-Aug-18 01:00N 41°02' E 002°12'816.9
2019-Aug-18 00:30N 40°54' E 002°12'916.9
2019-Aug-17 23:59N 40°45' E 002°12'816.9
2019-Aug-17 23:30N 40°37' E 002°12'1216.8
2019-Aug-17 22:49N 40°25' E 002°12'1016.7
2019-Aug-17 22:12N 40°15' E 002°12'1569.6
2019-Aug-17 22:00N 40°00' E 002°12'11266.2 050 / 101014.010.8 27.024.125.0
2019-Aug-17 21:57N 40°11' E 002°12'1116.6
2019-Aug-17 21:18N 39°60' E 002°12'517.0
2019-Aug-17 21:00N 39°55' E 002°12'817.0
2019-Aug-17 20:30N 39°47' E 002°13'917.0
2019-Aug-17 19:58N 39°37' E 002°13'1116.4
2019-Aug-17 19:18N 39°29' E 002°22'516.3
2019-Aug-17 19:00N 39°26' E 002°28'714.3
2019-Aug-17 18:30N 39°29' E 002°36'5 4.5
2019-Aug-17 17:28N 39°33' E 002°38'0 0.0
2019-Aug-17 16:58N 39°33' E 002°38'0 0.0
2019-Aug-17 16:29N 39°33' E 002°38'0 0.0
2019-Aug-17 15:59N 39°33' E 002°38'0 0.0
2019-Aug-17 15:29N 39°33' E 002°38'0 0.0
2019-Aug-17 15:00N 39°33' E 002°38'0 0.0
2019-Aug-17 14:30N 39°33' E 002°38'0 0.0
2019-Aug-17 14:00N 39°33' E 002°38'0 0.0
2019-Aug-17 13:28N 39°33' E 002°38'0 0.0
2019-Aug-17 12:58N 39°33' E 002°38'0 0.0
2019-Aug-17 12:28N 39°33' E 002°38'0 0.0
2019-Aug-17 11:59N 39°33' E 002°38'0 0.0
2019-Aug-17 11:26N 39°33' E 002°38'0 0.0
2019-Aug-17 10:59N 39°33' E 002°38'0 0.1
2019-Aug-17 10:30N 39°33' E 002°38'1 3.0
2019-Aug-17 10:00N 39°32' E 002°38'713.9
2019-Aug-17 09:30N 39°26' E 002°34'815.8
2019-Aug-17 09:00N 39°27' E 002°24'917.2
2019-Aug-17 08:28N 39°34' E 002°16'818.7
2019-Aug-17 08:00N 39°41' E 002°22'1319.1
2019-Aug-17 07:20N 39°51' E 002°33'919.1
2019-Aug-17 06:52N 39°57' E 002°41'719.3
2019-Aug-17 06:30N 40°02' E 002°47'1818.9
2019-Aug-17 05:33N 40°16' E 003°03'1620.7
2019-Aug-17 04:47N 40°27' E 003°18'920.8
2019-Aug-17 04:20N 40°34' E 003°26'821.0
2019-Aug-17 03:57N 40°40' E 003°33'2221.0
2019-Aug-17 02:55N 40°55' E 003°54'1021.0
2019-Aug-17 02:26N 41°02' E 004°03'921.2
2019-Aug-17 02:00N 41°08' E 004°12'1121.1
2019-Aug-17 01:30N 41°16' E 004°22'1721.0
2019-Aug-17 00:41N 41°29' E 004°37'420.9
2019-Aug-17 00:30N 41°32' E 004°40'1520.7
2019-Aug-16 23:47N 41°42' E 004°54'620.8
2019-Aug-16 23:30N 41°46' E 004°60'1020.5
2019-Aug-16 23:00N 41°54' E 005°10'2118.2
2019-Aug-16 23:00N 41°54' E 005°12'918.1 230 / 191016.027.0 23.0
2019-Aug-16 22:30N 42°01' E 005°19'1020.5
2019-Aug-16 22:00N 42°08' E 005°29'2020.6
2019-Aug-16 21:04N 42°22' E 005°47'683.0
2019-Aug-16 21:00N 42°18' E 005°42'9115.8 270 / 191016.010.8 23.019.924.0
2019-Aug-16 20:55N 42°24' E 005°50'820.7
2019-Aug-16 20:30N 42°30' E 005°58'1020.7
2019-Aug-16 20:01N 42°38' E 006°08'1121.0
2019-Aug-16 19:30N 42°45' E 006°18'1221.3
2019-Aug-16 18:57N 42°54' E 006°29'921.2
2019-Aug-16 18:30N 43°01' E 006°38'1121.2
2019-Aug-16 18:00N 43°09' E 006°46'1121.3
2019-Aug-16 17:30N 43°19' E 006°54'1019.5
2019-Aug-16 17:00N 43°28' E 006°59'5 9.5
2019-Aug-16 16:30N 43°32' E 007°01'0 0.4
2019-Aug-16 16:00N 43°32' E 007°01'0 0.4
2019-Aug-16 15:30N 43°32' E 007°01'0 0.0
2019-Aug-16 14:55N 43°32' E 007°01'0 0.0
2019-Aug-16 14:28N 43°32' E 007°01'0 0.0
2019-Aug-16 13:58N 43°32' E 007°01'0 0.0
2019-Aug-16 13:29N 43°32' E 007°01'0 0.0
2019-Aug-16 12:59N 43°32' E 007°01'0 0.1
2019-Aug-16 12:29N 43°32' E 007°01'0 0.0
2019-Aug-16 12:00N 43°32' E 007°01'0 0.0
2019-Aug-16 11:30N 43°32' E 007°01'0 0.1
2019-Aug-16 11:00N 43°32' E 007°01'0 0.1
2019-Aug-16 10:28N 43°32' E 007°01'0 0.0
2019-Aug-16 09:58N 43°32' E 007°01'0 0.1
2019-Aug-16 09:28N 43°32' E 007°01'0 0.1
2019-Aug-16 08:59N 43°32' E 007°01'0 0.1
2019-Aug-16 08:29N 43°32' E 007°01'0 0.0
2019-Aug-16 07:59N 43°32' E 007°01'0 0.1
2019-Aug-16 07:30N 43°32' E 007°01'0 0.0
2019-Aug-16 07:00N 43°32' E 007°01'0 0.0
2019-Aug-16 06:30N 43°32' E 007°01'0 0.0
2019-Aug-16 05:58N 43°32' E 007°01'0 0.1
2019-Aug-16 05:28N 43°32' E 007°01'0 0.2
2019-Aug-16 05:00N 43°32' E 007°01'4 7.9
2019-Aug-16 04:31N 43°28' E 007°03'816.0
2019-Aug-16 04:00N 43°28' E 007°14'816.5
2019-Aug-16 03:31N 43°28' E 007°25'816.6
2019-Aug-16 03:01N 43°29' E 007°37'816.7
2019-Aug-16 02:31N 43°29' E 007°48'917.6
2019-Aug-16 02:00N 43°29' E 008°00'713.2
2019-Aug-16 01:30N 43°29' E 008°09'612.5
2019-Aug-16 01:00N 43°30' E 008°18'612.2
2019-Aug-16 00:30N 43°30' E 008°26'612.2
2019-Aug-16 00:00N 43°30' E 008°35'612.0
2019-Aug-15 23:30N 43°30' E 008°43'612.0
2019-Aug-15 23:00N 43°30' E 008°51'2123.0
2019-Aug-15 23:00N 43°30' E 008°54'4 8.1 240 / 131014.027.0 24.0 26.0
2019-Aug-15 22:30N 43°30' E 008°59'611.5
2019-Aug-15 22:00N 43°30' E 009°07'611.4
2019-Aug-15 21:30N 43°31' E 009°15'611.7
2019-Aug-15 21:00N 43°31' E 009°23'4244.4
2019-Aug-15 21:00N 43°30' E 009°18'1020.2 280 / 151014.010.8 24.021.025.0
2019-Aug-15 20:30N 43°31' E 009°31'611.6
2019-Aug-15 20:00N 43°31' E 009°39'611.7
2019-Aug-15 19:30N 43°31' E 009°48'611.7
2019-Aug-15 19:00N 43°31' E 009°56'612.0
2019-Aug-15 18:30N 43°30' E 010°04'611.5
2019-Aug-15 18:00N 43°31' E 010°12'5 9.1
2019-Aug-15 17:30N 43°33' E 010°17'0 0.7
2019-Aug-15 16:58N 43°33' E 010°18'0 0.0
2019-Aug-15 16:28N 43°33' E 010°18'0 0.0
2019-Aug-15 15:58N 43°33' E 010°18'0 0.0
2019-Aug-15 15:29N 43°33' E 010°18'0 0.0
2019-Aug-15 14:59N 43°33' E 010°18'0 0.0
2019-Aug-15 14:29N 43°33' E 010°18'0 0.0
2019-Aug-15 14:00N 43°33' E 010°18'0 0.0
2019-Aug-15 13:30N 43°33' E 010°18'0 0.0
2019-Aug-15 13:00N 43°33' E 010°18'0 0.0
2019-Aug-15 12:28N 43°33' E 010°18'0 0.0
2019-Aug-15 11:58N 43°33' E 010°18'0 0.0
2019-Aug-15 11:28N 43°33' E 010°18'0 0.0
2019-Aug-15 10:59N 43°33' E 010°18'0 0.0
2019-Aug-15 10:29N 43°33' E 010°18'0 0.0
2019-Aug-15 09:59N 43°33' E 010°18'0 0.0
2019-Aug-15 09:30N 43°33' E 010°18'0 0.0
2019-Aug-15 09:00N 43°33' E 010°18'0 0.0
2019-Aug-15 08:30N 43°33' E 010°18'0 0.0
2019-Aug-15 07:58N 43°33' E 010°18'0 0.0
2019-Aug-15 07:28N 43°33' E 010°18'0 0.0
2019-Aug-15 06:58N 43°33' E 010°18'0 0.0
2019-Aug-15 06:29N 43°33' E 010°18'0 0.0
2019-Aug-15 05:59N 43°33' E 010°18'0 0.0
2019-Aug-15 05:29N 43°33' E 010°18'0 0.3
2019-Aug-15 05:00N 43°33' E 010°18'2 3.5
2019-Aug-15 04:30N 43°32' E 010°16'3 6.7
2019-Aug-15 04:01N 43°30' E 010°13'815.3
2019-Aug-15 03:30N 43°22' E 010°10'612.6
2019-Aug-15 03:00N 43°16' E 010°08'713.5
2019-Aug-15 02:31N 43°10' E 010°06'815.5
2019-Aug-15 02:00N 43°02' E 010°03'815.8
2019-Aug-15 01:31N 42°54' E 010°00'815.3
2019-Aug-15 01:01N 42°47' E 009°58'9513.2
2019-Aug-15 01:00N 42°42' E 009°48'611.7 010 / 111015.027.0 26.0 27.0
2019-Aug-15 00:31N 42°40' E 009°55'714.8
2019-Aug-15 00:00N 42°32' E 009°54'815.6
2019-Aug-14 23:31N 42°25' E 009°54'815.7
2019-Aug-14 22:58N 42°17' E 009°59'716.1
2019-Aug-14 22:31N 42°13' E 010°07'816.4
2019-Aug-14 22:00N 42°10' E 010°18'6412.7
2019-Aug-14 22:00N 42°06' E 010°24'4 7.2 010 / 251015.010.8 25.022.025.0
2019-Aug-14 21:30N 42°07' E 010°28'816.3
2019-Aug-14 21:01N 42°05' E 010°38'816.2
2019-Aug-14 20:31N 42°02' E 010°49'815.8
2019-Aug-14 20:01N 41°59' E 010°59'815.4
2019-Aug-14 19:30N 41°58' E 011°09'815.3
2019-Aug-14 19:01N 41°57' E 011°19'2213.7
2019-Aug-14 17:24N 42°06' E 011°46'0 0.0
2019-Aug-14 04:16N 42°06' E 011°46'0 0.0
2019-Aug-14 03:58N 42°06' E 011°46'2 2.2
2019-Aug-14 03:07N 42°06' E 011°44'1 6.6
2019-Aug-14 03:00N 42°06' E 011°43'714.4
2019-Aug-14 02:30N 41°59' E 011°43'1018.6
2019-Aug-14 01:58N 41°49' E 011°46'918.5
2019-Aug-14 01:30N 41°41' E 011°50'917.9
2019-Aug-14 00:59N 41°33' E 011°57'1017.1
2019-Aug-14 00:25N 41°25' E 012°04'1917.0
2019-Aug-13 23:17N 41°09' E 012°19'620.2
2019-Aug-13 23:00N 41°06' E 012°12'8521.6 280 / 301011.010.8 25.0 26.0
2019-Aug-13 22:59N 41°05' E 012°22'1617.4
2019-Aug-13 22:03N 40°53' E 012°37'118.2
2019-Aug-13 22:00N 40°53' E 012°39'115650.7
2019-Aug-13 22:00N 40°42' E 012°42'917.7 310 / 301010.010.8 27.022.625.0
2019-Aug-13 21:30N 40°49' E 012°49'917.6
2019-Aug-13 21:00N 40°45' E 012°59'917.2
2019-Aug-13 20:30N 40°42' E 013°10'917.4
2019-Aug-13 20:00N 40°41' E 013°21'917.6
2019-Aug-13 19:30N 40°39' E 013°33'917.9
2019-Aug-13 19:00N 40°38' E 013°44'918.0
2019-Aug-13 18:30N 40°37' E 013°56'917.1
2019-Aug-13 18:00N 40°40' E 014°07'816.2
2019-Aug-13 17:30N 40°46' E 014°14'5 9.4
2019-Aug-13 17:01N 40°50' E 014°16'0 0.1
2019-Aug-13 16:29N 40°50' E 014°16'0 0.0
2019-Aug-13 15:59N 40°50' E 014°16'0 0.0
2019-Aug-13 15:29N 40°50' E 014°16'0 0.0
2019-Aug-13 15:00N 40°50' E 014°16'0 0.0
2019-Aug-13 14:30N 40°50' E 014°16'0 0.0
2019-Aug-13 14:00N 40°50' E 014°16'0 0.0
2019-Aug-13 13:28N 40°50' E 014°16'0 0.0
2019-Aug-13 12:58N 40°50' E 014°16'0 0.0
2019-Aug-13 12:28N 40°50' E 014°16'0 0.0
2019-Aug-13 11:59N 40°50' E 014°16'0 0.0
2019-Aug-13 11:29N 40°50' E 014°16'0 0.0
2019-Aug-13 10:59N 40°50' E 014°16'0 0.0
2019-Aug-13 10:30N 40°50' E 014°16'0 0.0
2019-Aug-13 10:00N 40°50' E 014°16'0 0.0
2019-Aug-13 09:30N 40°50' E 014°16'0 0.0
2019-Aug-13 08:58N 40°50' E 014°16'0 0.0
2019-Aug-13 08:28N 40°50' E 014°16'0 0.0
2019-Aug-13 07:58N 40°50' E 014°16'0 0.0
2019-Aug-13 07:29N 40°50' E 014°16'0 0.0
2019-Aug-13 06:59N 40°50' E 014°16'0 0.0
2019-Aug-13 06:29N 40°50' E 014°16'0 0.0
2019-Aug-13 06:00N 40°50' E 014°16'0 0.0
2019-Aug-13 05:30N 40°50' E 014°16'0 0.0
2019-Aug-13 05:00N 40°50' E 014°16'0 0.4
2019-Aug-13 04:30N 40°50' E 014°16'2 4.7
2019-Aug-13 04:00N 40°48' E 014°17'713.3
2019-Aug-13 03:30N 40°43' E 014°11'816.1
2019-Aug-13 03:01N 40°39' E 014°03'1514.5
2019-Aug-13 02:00N 40°39' E 013°43'816.1
2019-Aug-13 01:30N 40°39' E 013°33'816.7
2019-Aug-13 01:00N 40°40' E 013°22'9545.0
2019-Aug-13 01:00N 40°36' E 013°12'511.1 290 / 101010.010.8 26.0
2019-Aug-13 00:30N 40°41' E 013°11'816.8
2019-Aug-13 00:00N 40°42' E 012°60'816.7
2019-Aug-12 23:30N 40°43' E 012°49'816.7
2019-Aug-12 23:00N 40°44' E 012°38'816.7
2019-Aug-12 22:30N 40°46' E 012°27'816.8
2019-Aug-12 22:00N 40°49' E 012°16'8500.9
2019-Aug-12 22:00N 40°48' E 012°06'3 5.9 330 / 151012.010.8 27.024.125.0
2019-Aug-12 21:30N 40°51' E 012°06'917.0
2019-Aug-12 21:00N 40°53' E 011°55'816.6
2019-Aug-12 20:30N 40°55' E 011°44'1016.6
2019-Aug-12 19:53N 40°57' E 011°31'616.7
2019-Aug-12 19:30N 40°59' E 011°23'1016.9
2019-Aug-12 18:53N 41°02' E 011°09'616.8
2019-Aug-12 18:30N 41°03' E 011°01'1316.9
2019-Aug-12 17:44N 41°07' E 010°44'416.9
2019-Aug-12 17:30N 41°08' E 010°39'816.7
2019-Aug-12 17:00N 41°10' E 010°29'917.9
2019-Aug-12 16:30N 41°12' E 010°17'919.0
2019-Aug-12 16:00N 41°14' E 010°05'1019.1
2019-Aug-12 15:30N 41°17' E 009°53'919.1
2019-Aug-12 15:00N 41°19' E 009°40'1018.9
2019-Aug-12 14:29N 41°22' E 009°28'1315.3
2019-Aug-12 13:38N 41°18' E 009°11'214.7
2019-Aug-12 13:30N 41°18' E 009°08'714.9
2019-Aug-12 13:00N 41°17' E 008°59'815.7
2019-Aug-12 12:30N 41°17' E 008°48'815.5
2019-Aug-12 12:00N 41°17' E 008°38'815.8
2019-Aug-12 11:30N 41°17' E 008°28'815.7
2019-Aug-12 11:00N 41°17' E 008°17'815.7
2019-Aug-12 10:30N 41°17' E 008°07'815.7
2019-Aug-12 10:00N 41°17' E 007°56'815.5
2019-Aug-12 09:30N 41°17' E 007°46'  
Track history (hours):
 
Tides and Currents Weather Stations Pressure Air Temp Water Temp Dewpoint Dewpoint Depression Visibility Wind Speed Wind Dir Waves Ship Positions

Norwegian Epic

Last reported at 2019-Aug-22 09:28 UTC. Time now 2019-Aug-22 09:38 UTC.
Position N 43°33' E 010°18'.

Length 329 m; draft 9.2 m.

Type: Passenger vessel. MMSI: 311018500.

Date/timePositionNaut miles runAvg speedWind from/ knotsBaromVisibWave heightAir tempDewpointWater temp
2019-Aug-22 09:28N 43°33' E 010°18'0 0.0
2019-Aug-22 08:59N 43°33' E 010°18'0 0.0
2019-Aug-22 08:29N 43°33' E 010°18'0 0.0
2019-Aug-22 07:59N 43°33' E 010°18'0 0.0
2019-Aug-22 07:30N 43°33' E 010°18'0 0.0
2019-Aug-22 07:00N 43°33' E 010°18'0 0.0
2019-Aug-22 06:30N 43°33' E 010°18'0 0.0
2019-Aug-22 06:01N 43°33' E 010°18'0 0.0
2019-Aug-22 05:28N 43°33' E 010°18'0 0.0
2019-Aug-22 04:58N 43°33' E 010°18'0 0.7
2019-Aug-22 04:31N 43°33' E 010°17'510.3
2019-Aug-22 04:00N 43°29' E 010°13'815.8
2019-Aug-22 03:31N 43°21' E 010°10'815.5
2019-Aug-22 03:01N 43°14' E 010°08'815.2
2019-Aug-22 02:30N 43°06' E 010°05'714.8
2019-Aug-22 02:00N 42°59' E 010°02'714.6
2019-Aug-22 01:30N 42°52' E 009°60'714.7
2019-Aug-22 01:01N 42°45' E 009°57'4222.9
2019-Aug-22 01:00N 42°48' E 009°54'1020.9 170 / 21018.010.8 25.0
2019-Aug-22 00:30N 42°38' E 009°55'714.5
2019-Aug-22 00:00N 42°31' E 009°53'714.2
2019-Aug-21 23:31N 42°24' E 009°54'714.4
2019-Aug-21 23:00N 42°17' E 009°58'814.8
2019-Aug-21 22:30N 42°13' E 010°07'815.6
2019-Aug-21 22:00N 42°11' E 010°17'815.8
2019-Aug-21 21:30N 42°08' E 010°27'815.5
2019-Aug-21 21:01N 42°05' E 010°36'9543.9
2019-Aug-21 21:00N 42°06' E 010°24'1734.3 200 / 51018.010.8 26.024.626.0
2019-Aug-21 20:30N 42°02' E 010°46'714.8
2019-Aug-21 20:00N 41°60' E 010°55'714.5
2019-Aug-21 19:31N 41°58' E 011°05'814.8
2019-Aug-21 19:00N 41°57' E 011°15'714.8
2019-Aug-21 18:30N 41°57' E 011°24'714.7
2019-Aug-21 18:00N 42°01' E 011°33'913.9
2019-Aug-21 17:22N 42°06' E 011°43'3 6.8
2019-Aug-21 16:59N 42°06' E 011°46'0 0.0
2019-Aug-21 16:14N 42°06' E 011°46'0 0.0
2019-Aug-21 14:15N 42°06' E 011°46'0 0.0
2019-Aug-21 13:55N 42°06' E 011°46'0 0.0
2019-Aug-21 13:28N 42°06' E 011°46'0 0.0
2019-Aug-21 12:58N 42°06' E 011°46'0 0.0
2019-Aug-21 12:23N 42°06' E 011°46'0 0.0
2019-Aug-21 11:47N 42°06' E 011°46'0 0.0
2019-Aug-21 11:29N 42°06' E 011°46'0 0.0
2019-Aug-21 10:59N 42°06' E 011°46'0 0.0
2019-Aug-21 10:30N 42°06' E 011°46'0 0.0
2019-Aug-21 10:00N 42°06' E 011°46'0 0.0
2019-Aug-21 09:30N 42°06' E 011°46'0 0.0
2019-Aug-21 08:58N 42°06' E 011°46'0 0.0
2019-Aug-21 08:16N 42°06' E 011°46'0 0.0
2019-Aug-21 07:58N 42°06' E 011°46'0 0.0
2019-Aug-21 07:29N 42°06' E 011°46'0 0.0
2019-Aug-21 06:59N 42°06' E 011°46'0 0.0
2019-Aug-21 06:29N 42°06' E 011°46'0 0.0
2019-Aug-21 06:00N 42°06' E 011°46'0 0.0
2019-Aug-21 05:24N 42°06' E 011°46'0 0.0
2019-Aug-21 04:16N 42°06' E 011°46'0 0.0
2019-Aug-21 03:58N 42°06' E 011°46'0 0.3
2019-Aug-21 03:31N 42°06' E 011°46'2 3.4
2019-Aug-21 03:00N 42°07' E 011°44'612.9
2019-Aug-21 02:30N 42°00' E 011°42'816.8
2019-Aug-21 02:00N 41°52' E 011°45'816.7
2019-Aug-21 01:30N 41°44' E 011°48'816.5
2019-Aug-21 01:00N 41°37' E 011°53'816.6
2019-Aug-21 00:30N 41°30' E 011°59'816.6
2019-Aug-21 00:00N 41°23' E 012°06'816.5
2019-Aug-20 23:30N 41°17' E 012°12'918.6
2019-Aug-20 23:00N 41°09' E 012°19'6368.8
2019-Aug-20 23:00N 41°06' E 012°12'1224.2 320 / 121016.010.8 25.0
2019-Aug-20 22:30N 41°01' E 012°26'1418.4
2019-Aug-20 21:46N 40°52' E 012°40'618.7
2019-Aug-20 21:26N 40°49' E 012°47'818.6
2019-Aug-20 21:00N 40°46' E 012°57'7430.1
2019-Aug-20 21:00N 40°48' E 012°48'1633.2 300 / 141017.010.8 26.024.626.0
2019-Aug-20 20:30N 40°43' E 013°08'918.4
2019-Aug-20 20:00N 40°41' E 013°20'918.5
2019-Aug-20 19:30N 40°40' E 013°32'918.5
2019-Aug-20 19:00N 40°38' E 013°44'918.4
2019-Aug-20 18:30N 40°38' E 013°56'917.7
2019-Aug-20 18:00N 40°41' E 014°07'816.3
2019-Aug-20 17:30N 40°47' E 014°15'4 7.1
2019-Aug-20 17:00N 40°50' E 014°16'0 0.0
2019-Aug-20 16:30N 40°50' E 014°16'0 0.0
2019-Aug-20 16:00N 40°50' E 014°16'0 0.0
2019-Aug-20 15:28N 40°50' E 014°16'0 0.0
2019-Aug-20 14:58N 40°50' E 014°16'0 0.0
2019-Aug-20 14:28N 40°50' E 014°16'0 0.0
2019-Aug-20 13:59N 40°50' E 014°16'0 0.0
2019-Aug-20 13:29N 40°50' E 014°16'0 0.0
2019-Aug-20 12:56N 40°50' E 014°16'0 0.0
2019-Aug-20 12:30N 40°50' E 014°16'0 0.0
2019-Aug-20 12:00N 40°50' E 014°16'0 0.0
2019-Aug-20 11:30N 40°50' E 014°16'0 0.0
2019-Aug-20 10:58N 40°50' E 014°16'0 0.0
2019-Aug-20 10:28N 40°50' E 014°16'0 0.0
2019-Aug-20 09:58N 40°50' E 014°16'0 0.0
2019-Aug-20 09:29N 40°50' E 014°16'0 0.0
2019-Aug-20 08:59N 40°50' E 014°16'0 0.0
2019-Aug-20 08:29N 40°50' E 014°16'0 0.0
2019-Aug-20 08:00N 40°50' E 014°16'0 0.0
2019-Aug-20 07:30N 40°50' E 014°16'0 0.0
2019-Aug-20 07:00N 40°50' E 014°16'0 0.0
2019-Aug-20 06:28N 40°50' E 014°16'0 0.0
2019-Aug-20 05:58N 40°50' E 014°16'0 0.0
2019-Aug-20 05:28N 40°50' E 014°16'0 0.0
2019-Aug-20 04:59N 40°50' E 014°16'0 1.0
2019-Aug-20 04:30N 40°50' E 014°16'3 6.8
2019-Aug-20 04:00N 40°47' E 014°16'713.9
2019-Aug-20 03:30N 40°42' E 014°09'714.0
2019-Aug-20 03:00N 40°39' E 014°01'713.2
2019-Aug-20 02:30N 40°38' E 013°53'815.8
2019-Aug-20 02:00N 40°39' E 013°42'815.9
2019-Aug-20 01:30N 40°39' E 013°32'816.1
2019-Aug-20 01:00N 40°40' E 013°21'816.1
2019-Aug-20 00:30N 40°41' E 013°11'816.0
2019-Aug-20 00:00N 40°42' E 013°00'816.0
2019-Aug-19 23:30N 40°43' E 012°50'815.9
2019-Aug-19 23:00N 40°44' E 012°39'815.8
2019-Aug-19 22:30N 40°46' E 012°29'816.0
2019-Aug-19 22:00N 40°48' E 012°19'816.1
2019-Aug-19 21:30N 40°50' E 012°09'816.1
2019-Aug-19 21:00N 40°52' E 011°58'4265.8
2019-Aug-19 21:00N 40°48' E 012°00'1122.5 010 / 7 27.0 26.024.626.0
2019-Aug-19 20:30N 40°54' E 011°48'816.0
2019-Aug-19 20:00N 40°56' E 011°38'815.8
2019-Aug-19 19:30N 40°58' E 011°28'816.0
2019-Aug-19 19:00N 41°00' E 011°18'915.7
2019-Aug-19 18:27N 41°02' E 011°06'815.7
2019-Aug-19 17:58N 41°04' E 010°56'715.5
2019-Aug-19 17:30N 41°06' E 010°47'1515.2
2019-Aug-19 16:30N 41°10' E 010°28'815.4
2019-Aug-19 16:00N 41°12' E 010°18'815.9
2019-Aug-19 15:30N 41°14' E 010°08'816.1
2019-Aug-19 15:00N 41°16' E 009°57'815.4
2019-Aug-19 14:29N 41°18' E 009°47'714.8
2019-Aug-19 14:00N 41°20' E 009°38'714.8
2019-Aug-19 13:30N 41°21' E 009°28'713.2
2019-Aug-19 13:00N 41°20' E 009°20'713.5
2019-Aug-19 12:30N 41°17' E 009°12'714.0
2019-Aug-19 12:00N 41°17' E 009°02'713.9
2019-Aug-19 11:31N 41°17' E 008°53'714.8
2019-Aug-19 11:00N 41°17' E 008°43'815.2
2019-Aug-19 10:31N 41°17' E 008°33'815.8
2019-Aug-19 10:00N 41°17' E 008°23'9613.2
2019-Aug-19 10:00N 41°12' E 008°12'510.2 090 / 131016.010.8 25.023.524.0
2019-Aug-19 09:30N 41°17' E 008°12'816.2
2019-Aug-19 09:00N 41°17' E 008°01'917.8
2019-Aug-19 08:31N 41°17' E 007°49'917.9
2019-Aug-19 08:00N 41°17' E 007°37'918.1
2019-Aug-19 07:31N 41°17' E 007°25'1016.6
2019-Aug-19 06:55N 41°17' E 007°12'716.5
2019-Aug-19 06:30N 41°17' E 007°03'816.5
2019-Aug-19 06:00N 41°17' E 006°52'916.8
2019-Aug-19 05:28N 41°17' E 006°40'817.1
2019-Aug-19 04:59N 41°17' E 006°29'817.4
2019-Aug-19 04:30N 41°17' E 006°18'1217.0
2019-Aug-19 03:48N 41°17' E 006°02'517.0
2019-Aug-19 03:30N 41°17' E 005°55'2816.9
2019-Aug-19 01:53N 41°16' E 005°19'616.9
2019-Aug-19 01:30N 41°16' E 005°10'817.1
2019-Aug-19 01:01N 41°16' E 004°59'816.9
2019-Aug-19 00:31N 41°16' E 004°48'816.8
2019-Aug-19 00:01N 41°16' E 004°37'6345.1
2019-Aug-19 00:00N 41°12' E 004°42'1326.9 110 / 111014.010.8 25.0
2019-Aug-18 23:31N 41°16' E 004°26'816.6
2019-Aug-18 23:01N 41°16' E 004°15'816.7
2019-Aug-18 22:30N 41°16' E 004°03'816.2
2019-Aug-18 22:01N 41°16' E 003°53'9536.0
2019-Aug-18 22:00N 41°12' E 003°42'4 7.9 130 / 131013.010.8 26.024.625.0
2019-Aug-18 21:31N 41°16' E 003°42'816.8
2019-Aug-18 21:01N 41°16' E 003°30'816.4
2019-Aug-18 20:31N 41°16' E 003°20'815.1
2019-Aug-18 20:01N 41°16' E 003°10'714.0
2019-Aug-18 19:30N 41°15' E 003°00'815.0
2019-Aug-18 19:00N 41°15' E 002°50'715.0
2019-Aug-18 18:30N 41°15' E 002°40'815.2
2019-Aug-18 18:00N 41°15' E 002°30'816.0
2019-Aug-18 17:30N 41°16' E 002°20'714.0
2019-Aug-18 17:00N 41°18' E 002°11'4 7.6
2019-Aug-18 16:30N 41°21' E 002°10'1 1.2
2019-Aug-18 16:00N 41°22' E 002°11'0 0.0
2019-Aug-18 15:28N 41°22' E 002°11'0 0.0
2019-Aug-18 14:58N 41°22' E 002°11'0 0.0
2019-Aug-18 14:28N 41°22' E 002°11'0 0.0
2019-Aug-18 13:59N 41°22' E 002°11'0 0.0
2019-Aug-18 13:26N 41°22' E 002°11'0 0.0
2019-Aug-18 12:59N 41°22' E 002°11'0 0.0
2019-Aug-18 12:30N 41°22' E 002°11'0 0.0
2019-Aug-18 12:00N 41°22' E 002°11'0 0.0
2019-Aug-18 11:30N 41°22' E 002°11'0 0.0
2019-Aug-18 10:58N 41°22' E 002°11'0 0.0
2019-Aug-18 10:28N 41°22' E 002°11'0 0.0
2019-Aug-18 09:58N 41°22' E 002°11'0 0.0
2019-Aug-18 09:29N 41°22' E 002°11'0 0.0
2019-Aug-18 08:59N 41°22' E 002°11'0 0.0
2019-Aug-18 08:29N 41°22' E 002°11'0 0.0
2019-Aug-18 08:00N 41°22' E 002°11'0 0.0
2019-Aug-18 07:00N 41°22' E 002°11'0 0.0
2019-Aug-18 06:28N 41°22' E 002°11'0 0.0
2019-Aug-18 05:58N 41°22' E 002°11'0 0.0
2019-Aug-18 05:25N 41°22' E 002°11'0 0.0
2019-Aug-18 04:56N 41°22' E 002°11'0 0.0
2019-Aug-18 04:26N 41°22' E 002°11'0 0.0
2019-Aug-18 03:59N 41°22' E 002°11'0 0.0
2019-Aug-18 03:27N 41°22' E 002°11'0 0.0
2019-Aug-18 03:00N 41°22' E 002°11'1 1.6
2019-Aug-18 02:30N 41°21' E 002°10'3 6.1
2019-Aug-18 02:00N 41°18' E 002°11'714.9
2019-Aug-18 01:30N 41°11' E 002°11'917.0
2019-Aug-18 01:00N 41°02' E 002°12'816.9
2019-Aug-18 00:30N 40°54' E 002°12'916.9
2019-Aug-17 23:59N 40°45' E 002°12'816.9
2019-Aug-17 23:30N 40°37' E 002°12'1216.8
2019-Aug-17 22:49N 40°25' E 002°12'1016.7
2019-Aug-17 22:12N 40°15' E 002°12'1569.6
2019-Aug-17 22:00N 40°00' E 002°12'11266.2 050 / 101014.010.8 27.024.125.0
2019-Aug-17 21:57N 40°11' E 002°12'1116.6
2019-Aug-17 21:18N 39°60' E 002°12'517.0
2019-Aug-17 21:00N 39°55' E 002°12'817.0
2019-Aug-17 20:30N 39°47' E 002°13'917.0
2019-Aug-17 19:58N 39°37' E 002°13'1116.4
2019-Aug-17 19:18N 39°29' E 002°22'516.3
2019-Aug-17 19:00N 39°26' E 002°28'714.3
2019-Aug-17 18:30N 39°29' E 002°36'5 4.5
2019-Aug-17 17:28N 39°33' E 002°38'0 0.0
2019-Aug-17 16:58N 39°33' E 002°38'0 0.0
2019-Aug-17 16:29N 39°33' E 002°38'0 0.0
2019-Aug-17 15:59N 39°33' E 002°38'0 0.0
2019-Aug-17 15:29N 39°33' E 002°38'0 0.0
2019-Aug-17 15:00N 39°33' E 002°38'0 0.0
2019-Aug-17 14:30N 39°33' E 002°38'0 0.0
2019-Aug-17 14:00N 39°33' E 002°38'0 0.0
2019-Aug-17 13:28N 39°33' E 002°38'0 0.0
2019-Aug-17 12:58N 39°33' E 002°38'0 0.0
2019-Aug-17 12:28N 39°33' E 002°38'0 0.0
2019-Aug-17 11:59N 39°33' E 002°38'0 0.0
2019-Aug-17 11:26N 39°33' E 002°38'0 0.0
2019-Aug-17 10:59N 39°33' E 002°38'0 0.1
2019-Aug-17 10:30N 39°33' E 002°38'1 3.0
2019-Aug-17 10:00N 39°32' E 002°38'713.9
2019-Aug-17 09:30N 39°26' E 002°34'815.8
2019-Aug-17 09:00N 39°27' E 002°24'917.2
2019-Aug-17 08:28N 39°34' E 002°16'818.7
2019-Aug-17 08:00N 39°41' E 002°22'1319.1
2019-Aug-17 07:20N 39°51' E 002°33'919.1
2019-Aug-17 06:52N 39°57' E 002°41'719.3
2019-Aug-17 06:30N 40°02' E 002°47'1818.9
2019-Aug-17 05:33N 40°16' E 003°03'1620.7
2019-Aug-17 04:47N 40°27' E 003°18'920.8
2019-Aug-17 04:20N 40°34' E 003°26'821.0
2019-Aug-17 03:57N 40°40' E 003°33'2221.0
2019-Aug-17 02:55N 40°55' E 003°54'1021.0
2019-Aug-17 02:26N 41°02' E 004°03'921.2
2019-Aug-17 02:00N 41°08' E 004°12'1121.1
2019-Aug-17 01:30N 41°16' E 004°22'1721.0
2019-Aug-17 00:41N 41°29' E 004°37'420.9
2019-Aug-17 00:30N 41°32' E 004°40'1520.7
2019-Aug-16 23:47N 41°42' E 004°54'620.8
2019-Aug-16 23:30N 41°46' E 004°60'1020.5
2019-Aug-16 23:00N 41°54' E 005°10'2118.2
2019-Aug-16 23:00N 41°54' E 005°12'918.1 230 / 191016.027.0 23.0
2019-Aug-16 22:30N 42°01' E 005°19'1020.5
2019-Aug-16 22:00N 42°08' E 005°29'2020.6
2019-Aug-16 21:04N 42°22' E 005°47'683.0
2019-Aug-16 21:00N 42°18' E 005°42'9115.8 270 / 191016.010.8 23.019.924.0
2019-Aug-16 20:55N 42°24' E 005°50'820.7
2019-Aug-16 20:30N 42°30' E 005°58'1020.7
2019-Aug-16 20:01N 42°38' E 006°08'1121.0
2019-Aug-16 19:30N 42°45' E 006°18'1221.3
2019-Aug-16 18:57N 42°54' E 006°29'921.2
2019-Aug-16 18:30N 43°01' E 006°38'1121.2
2019-Aug-16 18:00N 43°09' E 006°46'1121.3
2019-Aug-16 17:30N 43°19' E 006°54'1019.5
2019-Aug-16 17:00N 43°28' E 006°59'5 9.5
2019-Aug-16 16:30N 43°32' E 007°01'0 0.4
2019-Aug-16 16:00N 43°32' E 007°01'0 0.4
2019-Aug-16 15:30N 43°32' E 007°01'0 0.0
2019-Aug-16 14:55N 43°32' E 007°01'0 0.0
2019-Aug-16 14:28N 43°32' E 007°01'0 0.0
2019-Aug-16 13:58N 43°32' E 007°01'0 0.0
2019-Aug-16 13:29N 43°32' E 007°01'0 0.0
2019-Aug-16 12:59N 43°32' E 007°01'0 0.1
2019-Aug-16 12:29N 43°32' E 007°01'0 0.0
2019-Aug-16 12:00N 43°32' E 007°01'0 0.0
2019-Aug-16 11:30N 43°32' E 007°01'0 0.1
2019-Aug-16 11:00N 43°32' E 007°01'0 0.1
2019-Aug-16 10:28N 43°32' E 007°01'0 0.0
2019-Aug-16 09:58N 43°32' E 007°01'0 0.1
2019-Aug-16 09:28N 43°32' E 007°01'0 0.1
2019-Aug-16 08:59N 43°32' E 007°01'0 0.1
2019-Aug-16 08:29N 43°32' E 007°01'0 0.0
2019-Aug-16 07:59N 43°32' E 007°01'0 0.1
2019-Aug-16 07:30N 43°32' E 007°01'0 0.0
2019-Aug-16 07:00N 43°32' E 007°01'0 0.0
2019-Aug-16 06:30N 43°32' E 007°01'0 0.0
2019-Aug-16 05:58N 43°32' E 007°01'0 0.1
2019-Aug-16 05:28N 43°32' E 007°01'0 0.2
2019-Aug-16 05:00N 43°32' E 007°01'4 7.9
2019-Aug-16 04:31N 43°28' E 007°03'816.0
2019-Aug-16 04:00N 43°28' E 007°14'816.5
2019-Aug-16 03:31N 43°28' E 007°25'816.6
2019-Aug-16 03:01N 43°29' E 007°37'816.7
2019-Aug-16 02:31N 43°29' E 007°48'917.6
2019-Aug-16 02:00N 43°29' E 008°00'713.2
2019-Aug-16 01:30N 43°29' E 008°09'612.5
2019-Aug-16 01:00N 43°30' E 008°18'612.2
2019-Aug-16 00:30N 43°30' E 008°26'612.2
2019-Aug-16 00:00N 43°30' E 008°35'612.0
2019-Aug-15 23:30N 43°30' E 008°43'612.0
2019-Aug-15 23:00N 43°30' E 008°51'2123.0
2019-Aug-15 23:00N 43°30' E 008°54'4 8.1 240 / 131014.027.0 24.0 26.0
2019-Aug-15 22:30N 43°30' E 008°59'611.5
2019-Aug-15 22:00N 43°30' E 009°07'611.4
2019-Aug-15 21:30N 43°31' E 009°15'611.7
2019-Aug-15 21:00N 43°31' E 009°23'4244.4
2019-Aug-15 21:00N 43°30' E 009°18'1020.2 280 / 151014.010.8 24.021.025.0
2019-Aug-15 20:30N 43°31' E 009°31'611.6
2019-Aug-15 20:00N 43°31' E 009°39'611.7
2019-Aug-15 19:30N 43°31' E 009°48'611.7
2019-Aug-15 19:00N 43°31' E 009°56'612.0
2019-Aug-15 18:30N 43°30' E 010°04'611.5
2019-Aug-15 18:00N 43°31' E 010°12'5 9.1
2019-Aug-15 17:30N 43°33' E 010°17'0 0.7
2019-Aug-15 16:58N 43°33' E 010°18'0 0.0
2019-Aug-15 16:28N 43°33' E 010°18'0 0.0
2019-Aug-15 15:58N 43°33' E 010°18'0 0.0
2019-Aug-15 15:29N 43°33' E 010°18'0 0.0
2019-Aug-15 14:59N 43°33' E 010°18'0 0.0
2019-Aug-15 14:29N 43°33' E 010°18'0 0.0
2019-Aug-15 14:00N 43°33' E 010°18'0 0.0
2019-Aug-15 13:30N 43°33' E 010°18'0 0.0
2019-Aug-15 13:00N 43°33' E 010°18'0 0.0
2019-Aug-15 12:28N 43°33' E 010°18'0 0.0
2019-Aug-15 11:58N 43°33' E 010°18'0 0.0
2019-Aug-15 11:28N 43°33' E 010°18'0 0.0
2019-Aug-15 10:59N 43°33' E 010°18'0 0.0
2019-Aug-15 10:29N 43°33' E 010°18'0 0.0
2019-Aug-15 09:59N 43°33' E 010°18'0 0.0
2019-Aug-15 09:30N 43°33' E 010°18'0 0.0
2019-Aug-15 09:00N 43°33' E 010°18'0 0.0
2019-Aug-15 08:30N 43°33' E 010°18'0 0.0
2019-Aug-15 07:58N 43°33' E 010°18'0 0.0
2019-Aug-15 07:28N 43°33' E 010°18'0 0.0
2019-Aug-15 06:58N 43°33' E 010°18'0 0.0
2019-Aug-15 06:29N 43°33' E 010°18'0 0.0
2019-Aug-15 05:59N 43°33' E 010°18'0 0.0
2019-Aug-15 05:29N 43°33' E 010°18'0 0.3
2019-Aug-15 05:00N 43°33' E 010°18'2 3.5
2019-Aug-15 04:30N 43°32' E 010°16'3 6.7
2019-Aug-15 04:01N 43°30' E 010°13'815.3
2019-Aug-15 03:30N 43°22' E 010°10'612.6
2019-Aug-15 03:00N 43°16' E 010°08'713.5
2019-Aug-15 02:31N 43°10' E 010°06'815.5
2019-Aug-15 02:00N 43°02' E 010°03'815.8
2019-Aug-15 01:31N 42°54' E 010°00'815.3
2019-Aug-15 01:01N 42°47' E 009°58'9513.2
2019-Aug-15 01:00N 42°42' E 009°48'611.7 010 / 111015.027.0 26.0 27.0
2019-Aug-15 00:31N 42°40' E 009°55'714.8
2019-Aug-15 00:00N 42°32' E 009°54'815.6
2019-Aug-14 23:31N 42°25' E 009°54'815.7
2019-Aug-14 22:58N 42°17' E 009°59'716.1
2019-Aug-14 22:31N 42°13' E 010°07'816.4
2019-Aug-14 22:00N 42°10' E 010°18'6412.7
2019-Aug-14 22:00N 42°06' E 010°24'4 7.2 010 / 251015.010.8 25.022.025.0
2019-Aug-14 21:30N 42°07' E 010°28'816.3
2019-Aug-14 21:01N 42°05' E 010°38'816.2
2019-Aug-14 20:31N 42°02' E 010°49'815.8
2019-Aug-14 20:01N 41°59' E 010°59'815.4
2019-Aug-14 19:30N 41°58' E 011°09'815.3
2019-Aug-14 19:01N 41°57' E 011°19'2213.7
2019-Aug-14 17:24N 42°06' E 011°46'0 0.0
2019-Aug-14 04:16N 42°06' E 011°46'0 0.0
2019-Aug-14 03:58N 42°06' E 011°46'2 2.2
2019-Aug-14 03:07N 42°06' E 011°44'1 6.6
2019-Aug-14 03:00N 42°06' E 011°43'714.4
2019-Aug-14 02:30N 41°59' E 011°43'1018.6
2019-Aug-14 01:58N 41°49' E 011°46'918.5
2019-Aug-14 01:30N 41°41' E 011°50'917.9
2019-Aug-14 00:59N 41°33' E 011°57'1017.1
2019-Aug-14 00:25N 41°25' E 012°04'1917.0
2019-Aug-13 23:17N 41°09' E 012°19'620.2
2019-Aug-13 23:00N 41°06' E 012°12'8521.6 280 / 301011.010.8 25.0 26.0
2019-Aug-13 22:59N 41°05' E 012°22'1617.4
2019-Aug-13 22:03N 40°53' E 012°37'118.2
2019-Aug-13 22:00N 40°53' E 012°39'115650.7
2019-Aug-13 22:00N 40°42' E 012°42'917.7 310 / 301010.010.8 27.022.625.0
2019-Aug-13 21:30N 40°49' E 012°49'917.6
2019-Aug-13 21:00N 40°45' E 012°59'917.2
2019-Aug-13 20:30N 40°42' E 013°10'917.4
2019-Aug-13 20:00N 40°41' E 013°21'917.6
2019-Aug-13 19:30N 40°39' E 013°33'917.9
2019-Aug-13 19:00N 40°38' E 013°44'918.0
2019-Aug-13 18:30N 40°37' E 013°56'917.1
2019-Aug-13 18:00N 40°40' E 014°07'816.2
2019-Aug-13 17:30N 40°46' E 014°14'5 9.4
2019-Aug-13 17:01N 40°50' E 014°16'0 0.1
2019-Aug-13 16:29N 40°50' E 014°16'0 0.0
2019-Aug-13 15:59N 40°50' E 014°16'0 0.0
2019-Aug-13 15:29N 40°50' E 014°16'0 0.0
2019-Aug-13 15:00N 40°50' E 014°16'0 0.0
2019-Aug-13 14:30N 40°50' E 014°16'0 0.0
2019-Aug-13 14:00N 40°50' E 014°16'0 0.0
2019-Aug-13 13:28N 40°50' E 014°16'0 0.0
2019-Aug-13 12:58N 40°50' E 014°16'0 0.0
2019-Aug-13 12:28N 40°50' E 014°16'0 0.0
2019-Aug-13 11:59N 40°50' E 014°16'0 0.0
2019-Aug-13 11:29N 40°50' E 014°16'0 0.0
2019-Aug-13 10:59N 40°50' E 014°16'0 0.0
2019-Aug-13 10:30N 40°50' E 014°16'0 0.0
2019-Aug-13 10:00N 40°50' E 014°16'0 0.0
2019-Aug-13 09:30N 40°50' E 014°16'0 0.0
2019-Aug-13 08:58N 40°50' E 014°16'0 0.0
2019-Aug-13 08:28N 40°50' E 014°16'0 0.0
2019-Aug-13 07:58N 40°50' E 014°16'0 0.0
2019-Aug-13 07:29N 40°50' E 014°16'0 0.0
2019-Aug-13 06:59N 40°50' E 014°16'0 0.0
2019-Aug-13 06:29N 40°50' E 014°16'0 0.0
2019-Aug-13 06:00N 40°50' E 014°16'0 0.0
2019-Aug-13 05:30N 40°50' E 014°16'0 0.0
2019-Aug-13 05:00N 40°50' E 014°16'0 0.4
2019-Aug-13 04:30N 40°50' E 014°16'2 4.7
2019-Aug-13 04:00N 40°48' E 014°17'713.3
2019-Aug-13 03:30N 40°43' E 014°11'816.1
2019-Aug-13 03:01N 40°39' E 014°03'1514.5
2019-Aug-13 02:00N 40°39' E 013°43'816.1
2019-Aug-13 01:30N 40°39' E 013°33'816.7
2019-Aug-13 01:00N 40°40' E 013°22'9545.0
2019-Aug-13 01:00N 40°36' E 013°12'511.1 290 / 101010.010.8 26.0
2019-Aug-13 00:30N 40°41' E 013°11'816.8
2019-Aug-13 00:00N 40°42' E 012°60'816.7
2019-Aug-12 23:30N 40°43' E 012°49'816.7
2019-Aug-12 23:00N 40°44' E 012°38'816.7
2019-Aug-12 22:30N 40°46' E 012°27'816.8
2019-Aug-12 22:00N 40°49' E 012°16'8500.9
2019-Aug-12 22:00N 40°48' E 012°06'3 5.9 330 / 151012.010.8 27.024.125.0
2019-Aug-12 21:30N 40°51' E 012°06'917.0
2019-Aug-12 21:00N 40°53' E 011°55'816.6
2019-Aug-12 20:30N 40°55' E 011°44'1016.6
2019-Aug-12 19:53N 40°57' E 011°31'616.7
2019-Aug-12 19:30N 40°59' E 011°23'1016.9
2019-Aug-12 18:53N 41°02' E 011°09'616.8
2019-Aug-12 18:30N 41°03' E 011°01'1316.9
2019-Aug-12 17:44N 41°07' E 010°44'416.9
2019-Aug-12 17:30N 41°08' E 010°39'816.7
2019-Aug-12 17:00N 41°10' E 010°29'917.9
2019-Aug-12 16:30N 41°12' E 010°17'919.0
2019-Aug-12 16:00N 41°14' E 010°05'1019.1
2019-Aug-12 15:30N 41°17' E 009°53'919.1
2019-Aug-12 15:00N 41°19' E 009°40'1018.9
2019-Aug-12 14:29N 41°22' E 009°28'1315.3
2019-Aug-12 13:38N 41°18' E 009°11'214.7
2019-Aug-12 13:30N 41°18' E 009°08'714.9
2019-Aug-12 13:00N 41°17' E 008°59'815.7
2019-Aug-12 12:30N 41°17' E 008°48'815.5
2019-Aug-12 12:00N 41°17' E 008°38'815.8
2019-Aug-12 11:30N 41°17' E 008°28'815.7
2019-Aug-12 11:00N 41°17' E 008°17'815.7
2019-Aug-12 10:30N 41°17' E 008°07'815.7
2019-Aug-12 10:00N 41°17' E 007°56'815.5
2019-Aug-12 09:30N 41°17' E 007°46'  

Dump ship's entire track history